Time;durP1;ratioP1;P1;durP2;ratioP2;P2;SDS_P1;SDS_P2;PMS_P1;PMS_P2;Temp;Humidity;BMP_temperature;BMP_pressure;BME280_temperature;BME280_humidity;BME280_pressure;Samples;Min_cycle;Max_cycle;Signal;HPM_P1;HPM_P2
2024/01/21 00:00:21;;;;;;;22.17;8.05;;;;;;;-5.33;62.56;101226.94;10529267;28;20131;-65
2024/01/21 00:05:23;;;;;;;22.00;8.10;;;;;;;-5.38;62.80;101231.91;10526122;28;20058;-64
2024/01/21 00:10:25;;;;;;;20.48;8.52;;;;;;;-5.47;62.55;101233.38;10511120;28;20040;-64
2024/01/21 00:15:27;;;;;;;18.67;6.93;;;;;;;-5.29;62.93;101236.38;10506331;28;20404;-64
2024/01/21 00:20:30;;;;;;;21.40;8.05;;;;;;;-5.37;62.36;101230.25;10500949;28;20036;-64
2024/01/21 00:25:33;;;;;;;17.52;7.90;;;;;;;-5.63;62.58;101231.28;10523924;28;20060;-64
2024/01/21 00:30:35;;;;;;;23.17;8.88;;;;;;;-5.74;62.80;101213.16;10523992;28;20044;-64
2024/01/21 00:35:37;;;;;;;18.30;8.02;;;;;;;-5.69;63.06;101214.16;10504052;28;20036;-65
2024/01/21 00:40:39;;;;;;;18.92;6.45;;;;;;;-5.46;63.33;101204.50;10500589;28;20566;-64
2024/01/21 00:45:43;;;;;;;20.63;8.45;;;;;;;-5.63;62.60;101208.34;10521475;28;20056;-64
2024/01/21 00:50:45;;;;;;;22.95;7.28;;;;;;;-5.72;62.89;101203.84;10520891;28;20079;-64
2024/01/21 00:55:47;;;;;;;19.05;8.75;;;;;;;-5.68;62.63;101192.91;10518293;28;20052;-64
2024/01/21 01:00:49;;;;;;;21.83;7.90;;;;;;;-5.56;63.22;101193.22;10517368;28;20492;-65
2024/01/21 01:05:52;;;;;;;17.88;7.32;;;;;;;-5.44;62.55;101190.97;10502231;28;20052;-64
2024/01/21 01:10:53;;;;;;;19.52;8.70;;;;;;;-5.48;62.06;101189.19;10517953;28;20047;-65
2024/01/21 01:15:58;;;;;;;19.27;7.95;;;;;;;-5.46;62.24;101190.09;10518347;28;20496;-65
2024/01/21 01:21:00;;;;;;;24.30;9.02;;;;;;;-5.54;62.01;101195.81;10518282;28;20040;-64
2024/01/21 01:26:06;;;;;;;18.75;6.93;;;;;;;-5.51;62.51;101181.47;10519024;28;20055;-65
2024/01/21 01:31:08;;;;;;;23.33;8.30;;;;;;;-5.53;62.06;101172.06;10517816;28;20077;-65
2024/01/21 01:36:11;;;;;;;17.30;6.60;;;;;;;-5.70;62.05;101163.13;10526237;28;20079;-65
2024/01/21 01:41:13;;;;;;;20.55;8.27;;;;;;;-5.66;62.33;101158.16;10516636;28;20057;-64
2024/01/21 01:46:15;;;;;;;20.73;7.65;;;;;;;-5.75;62.31;101150.28;10520882;28;20051;-64
2024/01/21 01:51:17;;;;;;;15.50;6.75;;;;;;;-5.93;62.31;101139.59;10516448;28;20064;-65
2024/01/21 01:56:19;;;;;;;20.63;7.55;;;;;;;-5.94;62.60;101124.28;10518357;28;20050;-65
2024/01/21 02:01:22;;;;;;;18.23;6.63;;;;;;;-5.85;62.89;101119.44;10520919;28;20529;-65
2024/01/21 02:06:24;;;;;;;20.70;7.95;;;;;;;-5.75;62.39;101114.63;10535748;28;20044;-66
2024/01/21 02:11:27;;;;;;;21.40;8.05;;;;;;;-5.83;62.55;101102.53;10516031;28;20048;-65
2024/01/21 02:16:28;;;;;;;24.35;8.40;;;;;;;-5.81;62.15;101095.78;10498067;28;20056;-64
2024/01/21 02:21:30;;;;;;;20.77;7.85;;;;;;;-5.86;62.34;101089.69;10517400;28;20138;-65
2024/01/21 02:26:32;;;;;;;21.80;8.85;;;;;;;-6.03;61.83;101076.53;10522615;28;20543;-65
2024/01/21 02:31:34;;;;;;;20.90;7.28;;;;;;;-5.90;62.11;101058.19;10512482;28;20131;-64
2024/01/21 02:36:36;;;;;;;24.60;9.18;;;;;;;-6.07;61.99;101062.00;10526309;28;20052;-65
2024/01/21 02:41:38;;;;;;;17.13;7.72;;;;;;;-6.26;62.17;101064.94;10446015;28;20599;-65
2024/01/21 02:46:40;;;;;;;16.45;8.10;;;;;;;-6.12;62.12;101058.50;10444866;28;20033;-65
2024/01/21 02:51:42;;;;;;;18.38;8.10;;;;;;;-6.31;61.83;101056.31;10449941;28;20049;-65
2024/01/21 02:56:44;;;;;;;17.58;6.97;;;;;;;-6.26;61.91;101044.56;10440540;28;20828;-65
2024/01/21 03:01:46;;;;;;;18.02;7.55;;;;;;;-6.25;61.88;101043.72;10443276;28;20045;-65
2024/01/21 03:06:49;;;;;;;22.65;7.72;;;;;;;-6.40;61.97;101039.09;10440345;28;20821;-64
2024/01/21 03:11:51;;;;;;;22.65;7.57;;;;;;;-6.47;61.61;101028.72;10442984;28;20130;-65
2024/01/21 03:16:53;;;;;;;15.82;7.18;;;;;;;-6.53;62.13;101032.00;10442663;28;20488;-64
2024/01/21 03:21:55;;;;;;;16.30;6.57;;;;;;;-6.51;62.00;101035.44;10439909;28;20067;-64
2024/01/21 03:26:57;;;;;;;21.00;7.68;;;;;;;-6.72;61.96;101028.91;10439169;28;20060;-64
2024/01/21 03:31:59;;;;;;;20.52;8.50;;;;;;;-6.74;62.03;101023.78;10442145;28;20489;-64
2024/01/21 03:37:01;;;;;;;22.08;8.00;;;;;;;-6.90;61.74;101001.31;10439019;28;20136;-65
2024/01/21 03:42:03;;;;;;;23.58;8.63;;;;;;;-6.91;61.94;101008.91;10515631;28;20139;-64
2024/01/21 03:47:05;;;;;;;18.73;7.75;;;;;;;-6.86;61.89;101012.41;10522031;28;20075;-65
2024/01/21 03:52:07;;;;;;;23.15;8.13;;;;;;;-6.84;61.47;101016.72;10521063;28;20075;-65
2024/01/21 03:57:09;;;;;;;18.50;7.95;;;;;;;-6.92;61.42;101012.25;10521509;28;20047;-66
2024/01/21 04:02:11;;;;;;;15.88;7.38;;;;;;;-6.96;61.62;100995.19;10521943;28;20400;-65
2024/01/21 04:07:13;;;;;;;25.10;9.10;;;;;;;-7.15;61.43;101017.56;10540118;27;20047;-65
2024/01/21 04:12:15;;;;;;;19.95;6.78;;;;;;;-7.24;61.14;101024.06;10500920;28;20139;-65
2024/01/21 04:17:19;;;;;;;16.27;6.55;;;;;;;-7.30;61.35;101028.97;10519926;28;20040;-64
2024/01/21 04:22:21;;;;;;;20.85;7.45;;;;;;;-7.22;61.33;101019.88;10528234;28;20064;-66
2024/01/21 04:27:23;;;;;;;15.27;6.72;;;;;;;-7.11;61.38;101014.28;10518767;28;20142;-64
2024/01/21 04:32:25;;;;;;;20.48;8.07;;;;;;;-7.11;61.19;101029.53;10485670;28;20046;-66
2024/01/21 04:37:27;;;;;;;20.40;7.93;;;;;;;-7.13;60.96;101022.69;10527085;28;20047;-65
2024/01/21 04:42:30;;;;;;;22.35;8.88;;;;;;;-7.18;61.00;101025.09;10519847;28;20056;-66
2024/01/21 04:47:32;;;;;;;15.50;6.75;;;;;;;-7.27;60.90;101022.28;10518580;28;20529;-64
2024/01/21 04:52:34;;;;;;;15.98;7.45;;;;;;;-7.31;61.04;101022.16;10525280;28;20561;-65
2024/01/21 04:57:36;;;;;;;19.60;7.18;;;;;;;-7.37;60.91;101022.84;10520587;28;20113;-65
2024/01/21 05:02:38;;;;;;;16.88;6.93;;;;;;;-7.43;60.96;100997.25;10521547;28;20051;-64
2024/01/21 05:07:40;;;;;;;21.48;7.53;;;;;;;-7.50;61.00;100986.88;10524385;28;20134;-65
2024/01/21 05:12:42;;;;;;;14.63;6.45;;;;;;;-7.51;61.03;100973.31;10525619;28;20489;-65
2024/01/21 05:17:44;;;;;;;20.05;6.88;;;;;;;-7.47;61.53;100995.44;10523240;28;20054;-65
2024/01/21 05:22:46;;;;;;;18.45;6.10;;;;;;;-7.50;61.44;101015.69;10523079;28;20040;-65
2024/01/21 05:27:48;;;;;;;18.20;6.38;;;;;;;-7.38;61.24;101012.63;10526700;28;20044;-66
2024/01/21 05:32:51;;;;;;;15.20;6.32;;;;;;;-7.49;61.39;100988.59;10533315;28;20503;-64
2024/01/21 05:37:53;;;;;;;16.63;6.80;;;;;;;-7.33;61.25;100984.00;10525608;28;20554;-65
2024/01/21 05:42:56;;;;;;;21.75;7.63;;;;;;;-7.41;60.94;100975.28;10517120;28;20122;-65
2024/01/21 05:47:58;;;;;;;20.88;8.48;;;;;;;-7.32;61.11;100965.41;10519744;28;20044;-64
2024/01/21 05:53:00;;;;;;;21.10;8.35;;;;;;;-7.46;60.72;100960.75;10520423;28;20036;-64
2024/01/21 05:58:02;;;;;;;19.75;7.72;;;;;;;-7.79;60.62;100960.63;10517454;28;20102;-65
2024/01/21 06:03:04;;;;;;;17.20;6.43;;;;;;;-7.85;60.48;100957.06;10517818;28;20048;-64
2024/01/21 06:08:06;;;;;;;17.75;6.82;;;;;;;-8.02;60.92;100952.34;10519947;28;20131;-64
2024/01/21 06:13:08;;;;;;;17.45;6.25;;;;;;;-8.00;61.22;100937.16;10526183;28;20044;-64
2024/01/21 06:18:10;;;;;;;19.80;6.22;;;;;;;-8.08;60.58;100936.06;10526487;28;20123;-65
2024/01/21 06:23:13;;;;;;;16.00;6.72;;;;;;;-8.08;60.76;100942.00;10525288;28;20048;-65
2024/01/21 06:28:16;;;;;;;23.20;8.32;;;;;;;-7.99;60.96;100941.41;10508231;28;20058;-65
2024/01/21 06:33:19;;;;;;;16.27;7.07;;;;;;;-8.08;60.79;100936.91;10528078;28;20036;-64
2024/01/21 06:38:21;;;;;;;16.40;6.95;;;;;;;-8.06;60.63;100929.34;10533016;28;20044;-65
2024/01/21 06:43:23;;;;;;;19.50;7.97;;;;;;;-8.19;60.93;100947.56;10524541;28;20044;-64
2024/01/21 06:48:25;;;;;;;20.30;7.82;;;;;;;-8.03;61.23;100945.53;10506705;28;20416;-65
2024/01/21 06:53:28;;;;;;;18.08;7.70;;;;;;;-7.85;61.01;100937.63;10490078;28;20044;-64
2024/01/21 06:58:30;;;;;;;18.15;7.13;;;;;;;-7.60;61.09;100927.31;10505674;28;20040;-66
2024/01/21 07:03:32;;;;;;;21.45;7.57;;;;;;;-7.54;60.52;100940.22;10524159;28;20050;-65
2024/01/21 07:08:35;;;;;;;22.55;10.00;;;;;;;-7.47;60.53;100931.06;10520169;28;20051;-65
2024/01/21 07:13:38;;;;;;;19.13;7.47;;;;;;;-7.30;60.40;100917.16;10527120;28;20536;-65
2024/01/21 07:18:42;;;;;;;18.77;6.97;;;;;;;-7.41;60.35;100924.47;10523263;28;20048;-65
2024/01/21 07:23:45;;;;;;;16.30;6.68;;;;;;;-7.43;60.13;100913.41;10527747;28;20083;-65
2024/01/21 07:28:47;;;;;;;20.13;8.00;;;;;;;-7.57;60.27;100950.28;10504831;28;20588;-66
2024/01/21 07:33:49;;;;;;;16.45;7.00;;;;;;;-7.43;60.71;100951.53;10522264;27;20127;-66
2024/01/21 07:38:52;;;;;;;23.05;8.40;;;;;;;-7.24;60.58;100942.75;10521197;28;20048;-67
2024/01/21 07:43:54;;;;;;;15.82;6.90;;;;;;;-7.07;60.16;100957.63;10519244;28;20578;-66
2024/01/21 07:48:56;;;;;;;14.52;6.25;;;;;;;-6.86;60.28;100956.47;10521564;28;20067;-66
2024/01/21 07:53:58;;;;;;;20.67;6.65;;;;;;;-6.58;60.04;100951.28;10518427;28;20040;-66
2024/01/21 07:59:00;;;;;;;21.45;7.70;;;;;;;-6.42;59.53;100950.84;10523657;28;20135;-65
2024/01/21 08:04:02;;;;;;;20.90;8.15;;;;;;;-6.22;59.08;100949.63;10522001;28;20089;-65
2024/01/21 08:09:05;;;;;;;16.10;7.45;;;;;;;-6.30;59.11;100946.88;10521404;28;20515;-65
2024/01/21 08:14:07;;;;;;;18.10;7.43;;;;;;;-6.35;59.21;100945.06;10501376;28;20131;-65
2024/01/21 08:19:09;;;;;;;16.83;8.07;;;;;;;-6.30;58.94;100935.88;10501186;28;20047;-63
2024/01/21 08:24:11;;;;;;;15.23;7.45;;;;;;;-6.13;59.45;100937.09;10518853;28;20044;-66
2024/01/21 08:29:14;;;;;;;20.15;7.72;;;;;;;-5.92;59.09;100931.63;10519763;28;20134;-65
2024/01/21 08:34:16;;;;;;;20.73;7.32;;;;;;;-5.87;59.01;100930.91;10515551;28;20279;-66
2024/01/21 08:39:18;;;;;;;21.67;8.57;;;;;;;-5.93;59.53;100951.16;10518972;28;20700;-65
2024/01/21 08:44:20;;;;;;;20.13;8.00;;;;;;;-5.75;59.31;100938.84;10505331;28;20036;-69
2024/01/21 08:49:22;;;;;;;27.92;8.48;;;;;;;-5.63;58.98;100928.03;10519621;28;20059;-68
2024/01/21 08:54:25;;;;;;;18.92;7.30;;;;;;;-5.54;58.95;100929.09;10518347;28;20488;-68
2024/01/21 08:59:27;;;;;;;24.02;7.53;;;;;;;-5.45;58.96;100914.00;10519250;28;20447;-67
2024/01/21 09:04:29;;;;;;;21.23;7.97;;;;;;;-5.23;58.44;100924.59;10517012;28;20400;-68
2024/01/21 09:09:32;;;;;;;20.70;7.53;;;;;;;-5.22;58.82;100947.59;10501902;27;20040;-67
2024/01/21 09:14:34;;;;;;;23.13;7.22;;;;;;;-4.93;58.80;100991.53;10516399;28;20147;-67
2024/01/21 09:19:37;;;;;;;20.50;6.70;;;;;;;-4.71;58.48;101003.84;10499011;28;20056;-67
2024/01/21 09:24:39;;;;;;;17.15;7.68;;;;;;;-4.47;58.42;100990.66;10514252;28;20611;-67
2024/01/21 09:29:44;;;;;;;17.05;7.57;;;;;;;-4.39;58.19;101002.72;10512679;28;20078;-67
2024/01/21 09:34:46;;;;;;;13.38;6.55;;;;;;;-4.28;57.99;101021.63;10518785;28;20139;-67
2024/01/21 09:39:49;;;;;;;21.90;7.22;;;;;;;-4.14;57.78;101022.75;10512264;28;20051;-67
2024/01/21 09:44:52;;;;;;;19.02;7.78;;;;;;;-4.21;57.29;101022.59;10512896;28;20050;-67
2024/01/21 09:49:55;;;;;;;16.23;7.53;;;;;;;-4.12;57.20;101048.31;10522807;27;20055;-67
2024/01/21 09:54:59;;;;;;;16.10;7.57;;;;;;;-3.92;57.57;101047.81;10523510;27;20032;-67
2024/01/21 10:00:02;;;;;;;24.42;7.30;;;;;;;-3.67;57.28;101003.88;10525097;27;20048;-67
2024/01/21 10:05:13;;;;;;;18.10;8.27;;;;;;;-3.49;57.22;100962.41;10511724;28;20181;-65
2024/01/21 10:10:15;;;;;;;16.73;6.72;;;;;;;-3.58;56.94;100934.16;10505973;28;20055;-66
2024/01/21 10:15:18;;;;;;;19.17;7.28;;;;;;;-4.05;57.77;100989.69;10527716;28;20043;-68
2024/01/21 10:20:20;;;;;;;17.10;7.38;;;;;;;-3.83;57.41;100980.63;10510934;28;20118;-67
2024/01/21 10:25:22;;;;;;;20.33;8.88;;;;;;;-3.61;57.70;100980.13;10529157;28;20032;-68
2024/01/21 10:30:24;;;;;;;17.80;7.82;;;;;;;-3.38;57.88;100985.53;10524465;28;20146;-67
2024/01/21 10:35:27;;;;;;;19.85;7.80;;;;;;;-3.41;57.96;101000.84;10505203;28;20051;-67
2024/01/21 10:40:28;;;;;;;14.30;7.28;;;;;;;-3.06;57.73;100979.16;10525676;28;20139;-68
2024/01/21 10:45:33;;;;;;;20.13;7.75;;;;;;;-2.73;56.66;100953.06;10520410;28;20064;-66
2024/01/21 10:50:40;;;;;;;17.88;8.45;;;;;;;-2.31;57.06;100933.81;10523884;28;20059;-68
2024/01/21 10:55:44;;;;;;;20.30;7.85;;;;;;;-1.84;56.58;100923.03;10521713;28;20048;-68
2024/01/21 11:00:50;;;;;;;24.77;8.23;;;;;;;-1.75;55.50;100925.63;10519648;28;20043;-66
2024/01/21 11:06:04;;;;;;;18.20;8.00;;;;;;;-1.56;55.31;100912.06;10521668;28;20039;-67
2024/01/21 11:11:15;;;;;;;20.17;7.32;;;;;;;-1.74;55.33;100947.88;10523902;28;20044;-67
2024/01/21 11:16:26;;;;;;;18.73;7.60;;;;;;;-1.40;55.88;100954.91;10523043;28;20105;-67
2024/01/21 11:21:29;;;;;;;20.85;8.65;;;;;;;-1.02;54.90;100931.97;10520349;28;20113;-67
2024/01/21 11:26:35;;;;;;;19.88;7.72;;;;;;;-1.20;54.66;100925.03;10521037;28;20050;-67
2024/01/21 11:31:37;;;;;;;22.73;8.55;;;;;;;-0.87;54.52;100943.13;10519976;28;20052;-67
2024/01/21 11:36:42;;;;;;;22.58;7.43;;;;;;;-0.76;54.55;100920.06;10522358;28;20039;-67
2024/01/21 11:41:45;;;;;;;18.80;8.40;;;;;;;-0.55;54.45;100917.47;10478781;27;1218789;-67
2024/01/21 11:46:49;;;;;;;23.05;8.25;;;;;;;-0.43;54.51;100920.06;10518465;28;20456;-67
2024/01/21 11:51:52;;;;;;;19.02;7.47;;;;;;;-0.35;54.16;100913.22;10521604;28;20036;-67
2024/01/21 11:56:55;;;;;;;13.90;7.50;;;;;;;-0.36;54.77;100914.94;10520944;28;20072;-67
2024/01/21 12:01:58;;;;;;;24.40;8.98;;;;;;;-0.47;54.94;100921.78;10525061;27;20431;-67
2024/01/21 12:07:02;;;;;;;21.83;7.65;;;;;;;-0.49;55.48;100928.63;10540432;27;20052;-67
2024/01/21 12:12:08;;;;;;;20.77;8.52;;;;;;;-0.02;55.22;100920.91;10519580;28;20169;-66
2024/01/21 12:17:11;;;;;;;15.30;7.40;;;;;;;0.29;53.89;100904.56;10524960;28;20124;-69
2024/01/21 12:22:14;;;;;;;14.75;6.82;;;;;;;0.09;54.74;100895.19;10521693;28;20036;-65
2024/01/21 12:27:16;;;;;;;20.13;8.82;;;;;;;0.22;54.16;100887.41;10522454;28;20036;-65
2024/01/21 12:32:18;;;;;;;17.02;8.88;;;;;;;0.23;54.16;100893.44;10519746;28;20186;-66
2024/01/21 12:37:20;;;;;;;22.13;7.80;;;;;;;0.35;54.65;100894.25;10522204;28;20040;-67
2024/01/21 12:42:22;;;;;;;20.42;7.45;;;;;;;0.50;54.67;100888.22;10530492;28;20168;-67
2024/01/21 12:47:24;;;;;;;15.50;8.45;;;;;;;0.57;54.33;100860.69;10516904;28;20045;-66
2024/01/21 12:52:28;;;;;;;17.02;7.47;;;;;;;0.70;54.47;100859.78;10503732;28;20048;-67
2024/01/21 12:57:30;;;;;;;17.33;7.32;;;;;;;0.72;54.35;100848.63;10518677;28;20036;-67
2024/01/21 13:02:33;;;;;;;19.80;8.35;;;;;;;0.61;54.23;100844.41;10518963;28;20040;-67
2024/01/21 13:07:35;;;;;;;22.67;8.95;;;;;;;0.67;54.34;100841.81;10524430;28;20047;-67
2024/01/21 13:12:37;;;;;;;21.40;8.52;;;;;;;0.80;54.51;100827.97;10521757;28;20052;-68
2024/01/21 13:17:40;;;;;;;14.93;6.43;;;;;;;0.77;54.24;100821.13;10517928;28;20131;-67
2024/01/21 13:22:44;;;;;;;15.85;7.47;;;;;;;0.67;54.58;100818.63;10499914;28;20052;-67
2024/01/21 13:27:55;;;;;;;14.35;6.50;;;;;;;0.83;54.96;100794.50;10518811;28;20566;-68
2024/01/21 13:32:58;;;;;;;15.57;7.20;;;;;;;0.96;54.52;100799.56;10503648;28;21101;-68
2024/01/21 13:38:01;;;;;;;16.77;7.75;;;;;;;1.00;55.08;100808.09;10516103;28;20056;-67
2024/01/21 13:43:03;;;;;;;20.33;8.43;;;;;;;0.80;55.18;100808.25;10498631;28;20423;-67
2024/01/21 13:48:06;;;;;;;15.85;7.65;;;;;;;0.73;55.60;100822.00;10517140;28;20485;-67
2024/01/21 13:53:09;;;;;;;19.98;7.50;;;;;;;1.05;55.76;100830.41;10517691;28;20047;-67
2024/01/21 13:58:12;;;;;;;21.50;8.07;;;;;;;1.19;55.26;100826.00;10516716;28;20836;-67
2024/01/21 14:03:14;;;;;;;19.23;8.43;;;;;;;1.30;55.63;100823.31;10516787;28;20040;-67
2024/01/21 14:08:17;;;;;;;13.90;6.35;;;;;;;1.24;55.29;100819.09;10496808;28;20059;-68
2024/01/21 14:13:19;;;;;;;18.67;6.88;;;;;;;1.24;55.34;100816.50;10515100;28;20052;-67
2024/01/21 14:18:22;;;;;;;14.95;7.30;;;;;;;0.92;55.94;100813.31;10514974;28;20040;-67
2024/01/21 14:23:24;;;;;;;19.17;8.30;;;;;;;0.94;56.52;100831.31;10524509;28;20044;-68
2024/01/21 14:28:26;;;;;;;17.83;8.30;;;;;;;0.80;56.16;100846.88;10515713;28;20131;-67
2024/01/21 14:33:30;;;;;;;20.48;7.78;;;;;;;0.76;56.41;100850.31;10528358;28;20040;-67
2024/01/21 14:38:32;;;;;;;21.70;9.10;;;;;;;1.01;56.30;100845.88;10525084;28;20056;-67
2024/01/21 14:43:34;;;;;;;18.70;7.88;;;;;;;1.12;56.61;100839.78;10521503;27;20050;-68
2024/01/21 14:48:36;;;;;;;18.75;8.88;;;;;;;1.15;56.75;100837.22;10503236;28;20500;-67
2024/01/21 14:53:39;;;;;;;23.20;9.65;;;;;;;1.05;57.51;100842.44;10510157;27;20048;-68
2024/01/21 14:58:41;;;;;;;20.35;8.85;;;;;;;0.95;57.57;100843.34;10502970;28;20704;-68
2024/01/21 15:03:43;;;;;;;20.40;9.50;;;;;;;0.94;57.65;100852.78;10522676;28;20050;-68
2024/01/21 15:08:46;;;;;;;16.42;8.00;;;;;;;0.90;57.83;100835.66;10525869;28;20059;-66
2024/01/21 15:13:51;;;;;;;15.07;8.27;;;;;;;0.80;57.59;100844.28;10521631;28;20052;-67
2024/01/21 15:18:53;;;;;;;16.60;7.95;;;;;;;0.65;58.61;100851.25;10504754;28;20043;-67
2024/01/21 15:23:55;;;;;;;20.15;8.75;;;;;;;0.66;58.42;100847.81;10524242;28;20054;-68
2024/01/21 15:28:57;;;;;;;19.38;8.00;;;;;;;0.65;58.86;100852.09;10529075;28;20086;-67
2024/01/21 15:33:59;;;;;;;20.85;8.27;;;;;;;0.51;58.88;100857.31;10523984;28;20046;-67
2024/01/21 15:39:01;;;;;;;21.83;8.15;;;;;;;0.24;59.67;100864.28;10531985;28;20063;-68
2024/01/21 15:44:04;;;;;;;16.52;8.40;;;;;;;0.25;59.92;100856.56;10521517;28;20051;-67
2024/01/21 15:49:06;;;;;;;16.90;8.00;;;;;;;0.35;59.72;100862.53;10525845;27;20637;-67
2024/01/21 15:54:12;;;;;;;23.48;10.27;;;;;;;0.46;59.90;100874.47;10524244;27;20511;-67
2024/01/21 15:59:15;;;;;;;19.05;8.15;;;;;;;0.39;60.07;100875.38;10529852;27;20127;-67
2024/01/21 16:04:18;;;;;;;21.30;9.23;;;;;;;0.33;60.18;100859.09;10538117;27;20043;-67
2024/01/21 16:09:20;;;;;;;19.15;9.02;;;;;;;0.27;60.03;100859.13;10502478;28;20739;-67
2024/01/21 16:14:22;;;;;;;22.88;9.02;;;;;;;0.23;60.24;100837.69;10522561;28;20094;-66
2024/01/21 16:19:24;;;;;;;19.77;9.07;;;;;;;0.16;60.46;100848.03;10524680;28;20044;-66
2024/01/21 16:24:26;;;;;;;25.67;9.90;;;;;;;-0.07;61.07;100860.06;10518746;28;20151;-66
2024/01/21 16:29:30;;;;;;;19.73;9.50;;;;;;;-0.10;61.59;100871.22;10488898;28;20518;-66
2024/01/21 16:34:32;;;;;;;21.17;9.43;;;;;;;0.05;61.29;100867.75;10502873;28;20052;-66
2024/01/21 16:39:52;;;;;;;21.90;8.10;;;;;;;0.14;61.47;100862.56;10502778;28;20052;-66
2024/01/21 16:44:54;;;;;;;22.02;9.38;;;;;;;0.24;61.37;100848.84;10501250;28;20048;-62
2024/01/21 16:49:56;;;;;;;20.17;8.70;;;;;;;0.20;61.40;100835.13;10517859;28;20048;-64
2024/01/21 16:54:58;;;;;;;18.00;8.95;;;;;;;0.15;61.68;100846.31;10502502;28;20048;-64
2024/01/21 17:00:16;;;;;;;19.77;7.97;;;;;;;-0.15;62.65;100854.09;10516478;28;20031;-65
2024/01/21 17:05:23;;;;;;;22.20;9.23;;;;;;;-0.07;62.53;100832.66;10516535;28;20051;-64
2024/01/21 17:10:42;;;;;;;20.88;8.65;;;;;;;-0.00;62.55;100838.63;10516419;28;20052;-64
2024/01/21 17:15:44;;;;;;;19.92;9.75;;;;;;;0.08;62.37;100824.88;10515766;28;20416;-64
2024/01/21 17:20:46;;;;;;;20.73;9.40;;;;;;;0.13;62.38;100819.72;10517336;28;20051;-65
2024/01/21 17:25:49;;;;;;;25.50;10.32;;;;;;;0.21;62.37;100817.97;10516192;28;20048;-64
2024/01/21 17:30:51;;;;;;;17.80;8.68;;;;;;;0.27;62.37;100802.53;10515683;28;20044;-64
2024/01/21 17:35:53;;;;;;;18.90;8.75;;;;;;;0.32;62.05;100788.78;10519726;28;20066;-62
2024/01/21 17:40:56;;;;;;;23.77;9.25;;;;;;;0.27;62.17;100805.97;10515156;28;20139;-63
2024/01/21 17:45:58;;;;;;;24.30;10.77;;;;;;;0.21;62.48;100820.56;10514332;28;20071;-63
2024/01/21 17:51:00;;;;;;;24.33;10.27;;;;;;;0.29;62.38;100822.25;10519027;28;20062;-62
2024/01/21 17:56:02;;;;;;;24.15;10.80;;;;;;;0.29;62.61;100804.22;10515287;28;20172;-62
2024/01/21 18:01:04;;;;;;;23.35;9.98;;;;;;;0.27;62.71;100789.66;10498022;28;20044;-64
2024/01/21 18:06:06;;;;;;;19.70;10.30;;;;;;;0.31;62.63;100781.06;10517162;28;20060;-63
2024/01/21 18:11:09;;;;;;;18.55;9.98;;;;;;;0.36;62.57;100766.47;10506550;28;20078;-64
2024/01/21 18:16:12;;;;;;;20.90;9.32;;;;;;;0.41;62.11;100775.00;10522271;28;20136;-64
2024/01/21 18:21:15;;;;;;;19.50;10.07;;;;;;;0.22;62.48;100779.38;10526035;28;20077;-64
2024/01/21 18:26:17;;;;;;;24.67;10.18;;;;;;;0.29;62.70;100781.09;10522468;28;20055;-65
2024/01/21 18:31:20;;;;;;;17.15;8.70;;;;;;;0.34;62.63;100779.31;10525982;28;20186;-63
2024/01/21 18:36:22;;;;;;;25.02;10.88;;;;;;;0.41;62.41;100769.88;10523172;28;20583;-64
2024/01/21 18:41:24;;;;;;;21.48;9.80;;;;;;;0.44;62.41;100767.28;10507891;28;20056;-63
2024/01/21 18:46:27;;;;;;;18.42;9.85;;;;;;;0.46;62.68;100771.53;10526639;28;20048;-63
2024/01/21 18:51:29;;;;;;;23.95;10.15;;;;;;;0.54;62.68;100766.38;10522567;28;20135;-65
2024/01/21 18:56:31;;;;;;;23.88;11.18;;;;;;;0.52;62.72;100773.25;10521159;28;20051;-64
2024/01/21 19:01:33;;;;;;;25.42;11.07;;;;;;;0.48;62.73;100756.94;10520515;28;20485;-64
2024/01/21 19:06:35;;;;;;;28.92;10.35;;;;;;;0.53;62.89;100774.94;10521601;28;20032;-64
2024/01/21 19:11:37;;;;;;;27.17;11.38;;;;;;;0.58;62.94;100778.34;10520373;28;20039;-64
2024/01/21 19:16:39;;;;;;;23.63;11.60;;;;;;;0.65;62.91;100762.00;10516972;27;20048;-63
2024/01/21 19:21:41;;;;;;;22.17;9.07;;;;;;;0.66;62.83;100750.84;10485916;28;20170;-65
2024/01/21 19:26:44;;;;;;;21.85;9.13;;;;;;;0.69;62.90;100748.25;10523158;28;20085;-65
2024/01/21 19:31:46;;;;;;;24.50;9.68;;;;;;;0.67;63.05;100744.81;10524638;28;20047;-65
2024/01/21 19:36:49;;;;;;;21.17;9.30;;;;;;;0.69;62.84;100748.25;10505604;28;20408;-65
2024/01/21 19:41:51;;;;;;;19.15;8.82;;;;;;;0.71;63.02;100735.38;10472503;28;20412;-65
2024/01/21 19:46:53;;;;;;;18.88;9.02;;;;;;;0.78;63.07;100714.72;10476429;28;20047;-64
2024/01/21 19:51:58;;;;;;;22.17;10.10;;;;;;;0.72;63.17;100703.59;10478108;28;20044;-65
2024/01/21 19:57:00;;;;;;;24.40;11.45;;;;;;;0.74;63.30;100683.84;10478801;28;20093;-65
2024/01/21 20:02:02;;;;;;;22.92;11.02;;;;;;;0.53;63.87;100679.72;10477003;28;20131;-65
2024/01/21 20:07:04;;;;;;;22.65;10.57;;;;;;;0.53;63.86;100662.56;10475918;28;20463;-65
2024/01/21 20:12:06;;;;;;;21.67;10.15;;;;;;;0.64;63.71;100641.03;10478524;28;20044;-64
2024/01/21 20:17:09;;;;;;;20.42;10.63;;;;;;;0.68;63.68;100625.56;10475860;28;20137;-64
2024/01/21 20:22:12;;;;;;;20.00;9.88;;;;;;;0.43;63.69;100630.06;10478828;28;20047;-65
2024/01/21 20:27:15;;;;;;;22.33;9.80;;;;;;;0.27;64.29;100637.88;10477145;28;20113;-65
2024/01/21 20:32:17;;;;;;;21.13;8.85;;;;;;;0.14;64.56;100631.09;10481800;28;20047;-65
2024/01/21 20:37:19;;;;;;;24.63;9.93;;;;;;;0.30;64.49;100622.44;10471226;28;20057;-65
2024/01/21 20:42:21;;;;;;;18.05;9.43;;;;;;;0.43;64.43;100608.59;10518235;28;20852;-66
2024/01/21 20:47:23;;;;;;;19.05;9.45;;;;;;;0.57;64.57;100595.63;10511564;28;20179;-65
2024/01/21 20:52:25;;;;;;;19.00;9.45;;;;;;;0.67;64.26;100594.69;10524413;27;20058;-65
2024/01/21 20:57:27;;;;;;;19.77;8.88;;;;;;;0.77;64.20;100599.72;10515629;27;20072;-65
2024/01/21 21:02:29;;;;;;;18.73;9.85;;;;;;;0.84;63.98;100595.38;10516629;28;20500;-65
2024/01/21 21:07:32;;;;;;;22.23;9.35;;;;;;;0.87;63.86;100582.47;10518034;27;20510;-66
2024/01/21 21:12:34;;;;;;;15.27;9.13;;;;;;;0.92;64.08;100593.56;10522682;28;20047;-67
2024/01/21 21:17:36;;;;;;;19.85;9.07;;;;;;;0.92;64.09;100568.69;10518647;28;20733;-65
2024/01/21 21:22:39;;;;;;;19.63;9.48;;;;;;;0.94;64.08;100546.34;10506347;28;20072;-64
2024/01/21 21:27:41;;;;;;;19.27;8.90;;;;;;;0.96;63.98;100543.75;10530917;28;20431;-64
2024/01/21 21:32:43;;;;;;;23.50;9.77;;;;;;;1.05;63.86;100541.06;10502356;28;20936;-65
2024/01/21 21:37:46;;;;;;;22.23;9.90;;;;;;;1.05;64.21;100526.47;10523571;28;20522;-64
2024/01/21 21:42:48;;;;;;;24.77;10.50;;;;;;;1.02;64.17;100518.78;10511747;28;20047;-65
2024/01/21 21:47:50;;;;;;;21.88;10.65;;;;;;;0.88;64.49;100479.47;10535352;28;20036;-66
2024/01/21 21:52:53;;;;;;;18.05;9.15;;;;;;;0.90;64.61;100467.41;10540526;28;20051;-64
2024/01/21 21:57:55;;;;;;;16.63;9.25;;;;;;;0.73;64.80;100451.31;10539927;28;20039;-64
2024/01/21 22:02:57;;;;;;;16.77;8.60;;;;;;;0.67;65.07;100460.84;10532498;28;20120;-65
2024/01/21 22:08:00;;;;;;;17.15;8.50;;;;;;;0.55;65.39;100479.81;10539357;28;20048;-65
2024/01/21 22:13:02;;;;;;;19.95;10.15;;;;;;;0.59;65.42;100476.34;10537360;28;20126;-65
2024/01/21 22:18:04;;;;;;;21.58;9.98;;;;;;;0.76;65.22;100461.59;10538630;28;20135;-66
2024/01/21 22:23:06;;;;;;;17.05;8.75;;;;;;;0.87;64.69;100451.16;10531124;28;20073;-64
2024/01/21 22:28:08;;;;;;;20.17;10.18;;;;;;;0.75;65.05;100436.69;10534798;28;20134;-64
2024/01/21 22:33:11;;;;;;;18.55;8.60;;;;;;;0.68;65.52;100417.06;10541334;28;20127;-65
2024/01/21 22:38:13;;;;;;;15.70;7.25;;;;;;;0.69;65.68;100412.78;10529524;28;20052;-64
2024/01/21 22:43:15;;;;;;;16.73;8.00;;;;;;;0.68;65.68;100393.03;10536309;28;20512;-64
2024/01/21 22:48:17;;;;;;;18.13;8.93;;;;;;;0.48;66.08;100408.72;10535858;28;20419;-64
2024/01/21 22:53:19;;;;;;;16.13;8.05;;;;;;;0.37;66.19;100397.69;10530044;27;20052;-65
2024/01/21 22:58:27;;;;;;;23.17;8.63;;;;;;;0.36;66.05;100375.41;10524137;28;20054;-64